createdAt,value
2022-08-22T00:01:37.917Z,6.55
2022-08-22T00:03:10.647Z,7.25
2022-08-22T00:03:10.808Z,7.05
2022-08-22T00:04:26.422Z,7.30
2022-08-22T00:07:19.477Z,6.30
2022-08-22T00:10:12.699Z,6.32
2022-08-22T00:13:07.885Z,6.30
2022-08-22T00:15:44.852Z,6.47
2022-08-22T00:18:20.475Z,6.97
2022-08-22T00:21:20.894Z,7.50
2022-08-22T00:23:51.523Z,7.55
2022-08-22T00:26:31.325Z,6.88
2022-08-22T00:29:05.346Z,7.10
2022-08-22T00:31:40.639Z,7.50
2022-08-22T00:34:14.659Z,7.13
2022-08-22T00:36:48.193Z,6.65
2022-08-22T00:39:47.488Z,7.32
2022-08-22T00:42:29.412Z,6.82
2022-08-22T00:45:17.274Z,7.93
2022-08-22T00:47:46.938Z,7.50
2022-08-22T00:50:28.810Z,6.50
2022-08-22T00:53:17.210Z,7.18
2022-08-22T00:55:59.174Z,6.30
2022-08-22T00:58:51.307Z,6.65
2022-08-22T01:01:27.261Z,7.17
2022-08-22T01:04:07.602Z,7.53
2022-08-22T01:06:37.075Z,6.00
2022-08-22T01:09:22.629Z,5.93
2022-08-22T01:12:15.497Z,6.70
2022-08-22T01:15:07.441Z,7.53
2022-08-22T01:17:52.885Z,6.78
2022-08-22T01:20:58.272Z,8.32
2022-08-22T01:23:37.177Z,7.57
2022-08-22T01:26:26.815Z,6.20
2022-08-22T01:29:19.512Z,7.90
2022-08-22T01:32:32.186Z,7.03
2022-08-22T01:35:24.765Z,6.05
2022-08-22T01:38:09.517Z,8.13
2022-08-22T01:41:06.689Z,6.75
2022-08-22T01:43:59.670Z,7.53
2022-08-22T01:46:55.051Z,6.85
2022-08-22T01:49:27.901Z,6.78
2022-08-22T01:52:09.891Z,7.90
2022-08-22T01:54:59.067Z,8.25
2022-08-22T01:57:26.839Z,8.33
2022-08-22T01:59:59.798Z,6.40
2022-08-22T02:02:59.242Z,6.78
2022-08-22T02:05:40.067Z,7.18
2022-08-22T02:08:30.190Z,7.13
2022-08-22T02:11:12.098Z,6.70
2022-08-22T02:13:54.651Z,6.82
2022-08-22T02:16:33.117Z,6.78
2022-08-22T02:19:05.058Z,6.97
2022-08-22T02:21:45.132Z,7.10
2022-08-22T02:24:33.115Z,8.53
2022-08-22T02:27:13.363Z,7.68
2022-08-22T02:29:50.481Z,6.53
2022-08-22T02:32:25.386Z,7.45
2022-08-22T02:35:09.040Z,6.95
2022-08-22T02:37:54.583Z,6.13
2022-08-22T02:40:39.374Z,7.72
2022-08-22T02:43:21.224Z,6.55
2022-08-22T02:45:57.782Z,7.55
2022-08-22T02:48:55.954Z,7.18
2022-08-22T02:51:36.311Z,7.37
2022-08-22T02:54:14.491Z,6.55
2022-08-22T02:56:48.538Z,6.55
2022-08-22T02:59:27.563Z,6.90
2022-08-22T03:01:55.706Z,6.25
2022-08-22T03:04:45.335Z,6.70
2022-08-22T03:07:26.913Z,7.75
2022-08-22T03:10:03.831Z,7.40
2022-08-22T03:12:41.931Z,7.68
2022-08-22T03:15:31.611Z,7.22
2022-08-22T03:18:19.763Z,7.47
2022-08-22T03:20:56.915Z,6.30
2022-08-22T03:23:38.936Z,6.38
2022-08-22T03:26:25.092Z,5.97
2022-08-22T03:28:59.866Z,7.45
2022-08-22T03:31:29.429Z,6.83
2022-08-22T03:34:22.262Z,7.28
2022-08-22T03:37:25.115Z,8.43
2022-08-22T03:39:55.676Z,6.18
2022-08-22T03:42:50.135Z,5.95
2022-08-22T03:45:44.894Z,5.93
2022-08-22T03:48:40.776Z,6.78
2022-08-22T03:51:40.510Z,6.60
2022-08-22T03:54:22.563Z,5.93
2022-08-22T03:57:09.824Z,6.00
2022-08-22T03:59:42.770Z,7.30
2022-08-22T04:02:42.904Z,6.10
2022-08-22T04:05:53.363Z,7.25
2022-08-22T04:08:26.519Z,6.13
2022-08-22T04:11:05.458Z,7.38
2022-08-22T04:14:09.716Z,7.70
2022-08-22T04:16:57.764Z,6.15
2022-08-22T04:19:55.038Z,6.07
2022-08-22T04:22:56.808Z,6.90
2022-08-22T04:25:45.457Z,7.05
2022-08-22T04:28:31.735Z,5.77
2022-08-22T04:31:17.949Z,6.43
2022-08-22T04:33:51.946Z,6.63
2022-08-22T04:36:45.104Z,6.28
2022-08-22T04:39:40.941Z,6.28
2022-08-22T04:42:32.182Z,6.07
2022-08-22T04:45:12.829Z,6.55
2022-08-22T04:47:54.013Z,7.93
2022-08-22T04:50:46.046Z,8.57
2022-08-22T04:53:34.449Z,7.25
2022-08-22T04:56:25.361Z,5.97
2022-08-22T04:58:59.939Z,5.90
2022-08-22T05:01:53.558Z,6.57
2022-08-22T05:04:28.513Z,7.45
2022-08-22T05:07:20.757Z,6.03
2022-08-22T05:09:53.047Z,6.73
2022-08-22T05:12:29.146Z,5.97
2022-08-22T05:15:02.983Z,6.03
2022-08-22T05:17:32.043Z,5.75
2022-08-22T05:20:06.452Z,6.03
2022-08-22T05:22:40.189Z,10.93
2022-08-22T05:25:11.974Z,8.27
2022-08-22T05:27:48.668Z,6.47
2022-08-22T05:30:27.407Z,7.05
2022-08-22T05:33:14.771Z,6.00
2022-08-22T05:35:49.676Z,5.93
2022-08-22T05:38:23.457Z,6.07
2022-08-22T05:40:56.799Z,6.85
2022-08-22T05:43:25.813Z,6.80
2022-08-22T05:45:57.719Z,7.22
2022-08-22T05:48:56.458Z,7.70
2022-08-22T05:51:39.835Z,6.35
2022-08-22T05:54:14.589Z,6.72
2022-08-22T05:57:09.991Z,7.72
2022-08-22T05:59:41.858Z,7.25
2022-08-22T06:02:14.533Z,7.00
2022-08-22T06:04:55.446Z,7.18
2022-08-22T06:07:49.072Z,6.78
2022-08-22T06:10:27.986Z,7.80
2022-08-22T06:13:23.559Z,7.07
2022-08-22T06:16:00.133Z,6.13
2022-08-22T06:18:28.056Z,6.03
2022-08-22T06:21:10.270Z,6.50
2022-08-22T06:23:46.303Z,6.78
2022-08-22T06:26:21.161Z,6.15
2022-08-22T06:28:54.509Z,7.97
2022-08-22T06:31:32.998Z,6.88
2022-08-22T06:34:12.071Z,7.00
2022-08-22T06:36:41.647Z,6.60
2022-08-22T06:39:21.288Z,5.78
2022-08-22T06:42:02.566Z,7.07
2022-08-22T06:44:53.773Z,6.32
2022-08-22T06:47:28.832Z,9.27
2022-08-22T06:50:20.822Z,6.20
2022-08-22T06:53:01.528Z,7.05
2022-08-22T06:55:30.426Z,6.47
2022-08-22T06:58:02.436Z,6.68
2022-08-22T07:00:33.404Z,7.30
2022-08-22T07:03:42.621Z,6.45
2022-08-22T07:06:16.156Z,6.68
2022-08-22T07:08:43.690Z,6.77
2022-08-22T07:11:22.645Z,6.70
2022-08-22T07:14:06.608Z,7.70
2022-08-22T07:16:44.927Z,5.55
2022-08-22T07:19:38.242Z,6.68
2022-08-22T07:22:14.723Z,6.47
2022-08-22T07:24:50.682Z,7.43
2022-08-22T07:27:42.047Z,7.38
2022-08-22T07:30:13.186Z,7.70
2022-08-22T07:32:58.835Z,7.32
2022-08-22T07:35:53.299Z,6.47
2022-08-22T07:38:37.243Z,6.65
2022-08-22T07:41:17.227Z,6.55
2022-08-22T07:43:59.632Z,5.60
2022-08-22T07:46:41.722Z,7.35
2022-08-22T07:49:53.206Z,6.30
2022-08-22T07:52:21.773Z,6.07
2022-08-22T07:54:57.030Z,6.25
2022-08-22T07:57:32.829Z,6.47
2022-08-22T08:00:02.099Z,7.32
2022-08-22T08:02:29.365Z,7.63
2022-08-22T08:05:00.291Z,8.00
2022-08-22T08:07:29.165Z,7.57
2022-08-22T08:10:03.011Z,8.07
2022-08-22T08:12:39.436Z,5.78
2022-08-22T08:15:15.783Z,7.40
2022-08-22T08:17:44.691Z,7.32
2022-08-22T08:20:15.238Z,6.68
2022-08-22T08:22:45.969Z,5.95
2022-08-22T08:25:19.897Z,6.35
2022-08-22T08:27:50.287Z,5.13
2022-08-22T08:30:23.351Z,6.07
2022-08-22T08:32:57.603Z,5.85
2022-08-22T08:36:02.735Z,5.78
2022-08-22T08:38:38.231Z,5.15
2022-08-22T08:41:22.774Z,7.37
2022-08-22T08:43:49.753Z,7.53
2022-08-22T08:46:55.540Z,6.75
2022-08-22T08:49:42.165Z,6.38
2022-08-22T08:52:42.197Z,5.47
2022-08-22T08:55:30.921Z,6.63
2022-08-22T08:58:40.785Z,6.65
2022-08-22T09:01:31.961Z,5.30
2022-08-22T09:04:19.427Z,5.55
2022-08-22T09:06:52.804Z,5.00
2022-08-22T09:09:58.079Z,4.90
2022-08-22T09:12:24.915Z,6.03
2022-08-22T09:15:15.758Z,8.40
2022-08-22T09:18:00.779Z,8.30
2022-08-22T09:21:13.732Z,7.75
2022-08-22T09:24:04.632Z,6.87
2022-08-22T09:26:52.604Z,10.48
2022-08-22T09:29:51.368Z,10.02
2022-08-22T09:32:37.090Z,10.77
2022-08-22T09:35:16.203Z,9.20
2022-08-22T09:38:23.391Z,9.27
2022-08-22T09:41:24.872Z,7.97
2022-08-22T09:44:03.905Z,15.10
2022-08-22T09:46:55.223Z,10.30
2022-08-22T09:50:18.153Z,16.25
2022-08-22T09:53:11.203Z,13.30
2022-08-22T09:55:40.715Z,11.63
2022-08-22T09:58:41.598Z,10.13
2022-08-22T10:01:32.871Z,10.32
2022-08-22T10:04:28.984Z,19.35
2022-08-22T10:06:58.651Z,12.50
2022-08-22T10:09:34.472Z,13.73
2022-08-22T10:12:12.320Z,12.35
2022-08-22T10:15:09.895Z,11.15
2022-08-22T10:17:51.982Z,19.38
2022-08-22T10:20:55.345Z,10.43
2022-08-22T10:23:35.915Z,10.20
2022-08-22T10:26:02.908Z,10.80
2022-08-22T10:28:41.497Z,11.57
2022-08-22T10:31:25.717Z,17.52
2022-08-22T10:34:22.720Z,13.83
2022-08-22T10:37:30.860Z,10.80
2022-08-22T10:39:59.113Z,10.38
2022-08-22T10:42:36.522Z,11.23
2022-08-22T10:45:37.275Z,8.80
2022-08-22T10:48:08.943Z,10.63
2022-08-22T10:50:39.914Z,9.65
2022-08-22T10:53:29.454Z,13.10
2022-08-22T10:56:25.169Z,9.98
2022-08-22T10:59:23.237Z,10.40
2022-08-22T11:02:07.256Z,10.77
2022-08-22T11:05:03.386Z,10.75
2022-08-22T11:08:07.441Z,14.30
2022-08-22T11:11:14.942Z,12.52
2022-08-22T11:14:21.834Z,9.95
2022-08-22T11:17:27.525Z,15.53
2022-08-22T11:20:14.417Z,10.65
2022-08-22T11:23:16.878Z,10.38
2022-08-22T11:25:53.921Z,9.40
2022-08-22T11:28:45.342Z,13.00
2022-08-22T11:31:51.983Z,9.07
2022-08-22T11:34:50.199Z,11.88
2022-08-22T11:37:42.879Z,8.80
2022-08-22T11:40:43.137Z,13.48
2022-08-22T11:43:34.408Z,13.77
2022-08-22T11:46:36.387Z,11.23
2022-08-22T11:49:44.949Z,10.65
2022-08-22T11:52:12.590Z,12.77
2022-08-22T11:54:53.210Z,18.50
2022-08-22T11:57:44.718Z,13.68
2022-08-22T12:00:34.954Z,10.57
2022-08-22T12:03:46.194Z,9.63
2022-08-22T12:06:46.917Z,10.13
2022-08-22T12:09:30.151Z,11.20
2022-08-22T12:12:17.103Z,11.70
2022-08-22T12:15:19.597Z,11.10
2022-08-22T12:18:20.199Z,11.50
2022-08-22T12:21:07.590Z,12.00
2022-08-22T12:24:32.420Z,9.35
2022-08-22T12:27:28.704Z,11.52
2022-08-22T12:30:13.687Z,10.93
2022-08-22T12:33:21.928Z,7.97
2022-08-22T12:35:58.513Z,11.43
2022-08-22T12:38:40.801Z,8.88
2022-08-22T12:41:35.581Z,10.40
2022-08-22T12:44:17.163Z,10.13
2022-08-22T12:47:09.218Z,13.38
2022-08-22T12:50:26.901Z,10.75
2022-08-22T12:53:19.645Z,8.80
2022-08-22T12:55:53.297Z,13.70
2022-08-22T12:58:51.460Z,10.37
2022-08-22T13:01:19.926Z,11.82
2022-08-22T13:04:03.864Z,10.07
2022-08-22T13:06:33.844Z,11.25
2022-08-22T13:09:02.715Z,14.18
2022-08-22T13:11:41.776Z,13.60
2022-08-22T13:14:19.601Z,8.63
2022-08-22T13:16:55.124Z,10.48
2022-08-22T13:19:27.306Z,17.38
2022-08-22T13:22:10.434Z,8.77
2022-08-22T13:24:51.705Z,9.80
2022-08-22T13:27:50.594Z,10.50
2022-08-22T13:30:26.863Z,12.30
2022-08-22T13:33:12.974Z,13.40
2022-08-22T13:35:44.472Z,11.10
2022-08-22T13:38:17.907Z,12.00
2022-08-22T13:40:54.385Z,10.65
2022-08-22T13:43:26.077Z,10.32
2022-08-22T13:46:07.119Z,12.85
2022-08-22T13:48:50.615Z,9.68
2022-08-22T13:51:39.986Z,11.37
2022-08-22T13:54:15.811Z,10.10
2022-08-22T13:56:56.415Z,15.70
2022-08-22T13:59:50.827Z,14.18
2022-08-22T14:02:31.038Z,11.60
2022-08-22T14:05:07.608Z,13.70
2022-08-22T14:07:59.386Z,12.27
2022-08-22T14:10:33.505Z,9.63
2022-08-22T14:13:00.516Z,8.00
2022-08-22T14:15:44.947Z,9.90
2022-08-22T14:18:30.327Z,12.17
2022-08-22T14:21:26.226Z,10.85
2022-08-22T14:23:57.992Z,10.70
2022-08-22T14:27:05.492Z,9.80
2022-08-22T14:29:50.811Z,12.70
2022-08-22T14:32:26.677Z,9.40
2022-08-22T14:35:02.936Z,10.13
2022-08-22T14:37:35.864Z,12.77
2022-08-22T14:40:12.995Z,13.65
2022-08-22T14:43:05.404Z,12.60
2022-08-22T14:45:39.452Z,13.73
2022-08-22T14:48:29.584Z,14.20
2022-08-22T14:51:10.462Z,12.05
2022-08-22T14:53:39.705Z,8.73
2022-08-22T14:56:12.028Z,9.32
2022-08-22T14:59:04.603Z,9.33
2022-08-22T15:01:51.162Z,12.40
2022-08-22T15:04:29.762Z,11.02
2022-08-22T15:06:58.781Z,12.07
2022-08-22T15:09:50.710Z,15.07
2022-08-22T15:12:40.401Z,15.13
2022-08-22T15:15:15.706Z,12.85
2022-08-22T15:17:46.028Z,11.93
2022-08-22T15:20:27.649Z,12.05
2022-08-22T15:22:59.135Z,9.35
2022-08-22T15:25:31.988Z,9.33
2022-08-22T15:28:20.811Z,11.13
2022-08-22T15:30:54.203Z,8.38
2022-08-22T15:33:45.576Z,9.88
2022-08-22T15:36:21.374Z,9.68
2022-08-22T15:38:54.815Z,13.30
2022-08-22T15:41:36.212Z,11.35
2022-08-22T15:44:14.890Z,10.02
2022-08-22T15:47:03.175Z,9.77
2022-08-22T15:49:35.500Z,11.88
2022-08-22T15:52:02.296Z,9.77
2022-08-22T15:54:59.304Z,12.65
2022-08-22T15:57:37.402Z,9.48
2022-08-22T16:00:23.116Z,9.15
2022-08-22T16:03:28.619Z,7.05
2022-08-22T16:06:00.416Z,8.53
2022-08-22T16:08:45.389Z,9.77
2022-08-22T16:11:33.780Z,9.13
2022-08-22T16:14:23.578Z,8.38
2022-08-22T16:16:50.794Z,10.18
2022-08-22T16:19:22.222Z,10.43
2022-08-22T16:21:51.837Z,9.57
2022-08-22T16:24:18.635Z,10.52
2022-08-22T16:26:46.510Z,9.55
2022-08-22T16:29:17.950Z,9.63
2022-08-22T16:31:44.980Z,12.97
2022-08-22T16:34:17.720Z,13.85
2022-08-22T16:37:13.496Z,12.40
2022-08-22T16:39:45.555Z,12.70
2022-08-22T16:42:15.156Z,10.05
2022-08-22T16:45:10.449Z,14.07
2022-08-22T16:47:42.443Z,13.40
2022-08-22T16:50:18.404Z,10.45
2022-08-22T16:53:16.280Z,8.93
2022-08-22T16:55:46.264Z,12.30
2022-08-22T16:58:20.226Z,12.67
2022-08-22T17:01:01.959Z,9.40
2022-08-22T17:03:47.510Z,10.27
2022-08-22T17:06:48.518Z,14.13
2022-08-22T17:09:59.868Z,12.27
2022-08-22T17:12:51.755Z,15.27
2022-08-22T17:15:51.966Z,11.52
2022-08-22T17:18:27.223Z,12.75
2022-08-22T17:21:06.223Z,10.88
2022-08-22T17:23:51.127Z,12.13
2022-08-22T17:26:31.518Z,14.23
2022-08-22T17:29:17.148Z,11.90
2022-08-22T17:32:10.158Z,11.80
2022-08-22T17:35:16.924Z,15.48
2022-08-22T17:37:55.886Z,9.50
2022-08-22T17:40:38.082Z,10.83
2022-08-22T17:43:13.879Z,11.05
2022-08-22T17:46:21.688Z,11.45
2022-08-22T17:49:48.597Z,10.00
2022-08-22T17:52:20.744Z,11.63
2022-08-22T17:55:01.294Z,12.13
2022-08-22T17:57:33.974Z,10.10
2022-08-22T18:00:16.795Z,8.82
2022-08-22T18:03:07.621Z,9.15
2022-08-22T18:05:49.748Z,8.65
2022-08-22T18:11:09.180Z,10.57
2022-08-22T18:14:14.299Z,10.43
2022-08-22T18:16:47.895Z,9.73
2022-08-22T18:19:36.830Z,11.00
2022-08-22T18:22:13.167Z,11.23
2022-08-22T18:25:17.593Z,7.55
2022-08-22T18:27:52.897Z,8.40
2022-08-22T18:30:31.761Z,9.95
2022-08-22T18:33:18.950Z,9.38
2022-08-22T18:35:54.610Z,12.33
2022-08-22T18:38:25.454Z,9.40
2022-08-22T18:41:13.208Z,9.82
2022-08-22T18:43:47.807Z,8.82
2022-08-22T18:46:32.465Z,11.65
2022-08-22T18:49:33.704Z,9.80
2022-08-22T18:52:06.721Z,12.13
2022-08-22T18:54:59.101Z,10.18
2022-08-22T18:57:46.913Z,8.63
2022-08-22T19:00:40.256Z,8.52
2022-08-22T19:03:42.449Z,8.50
2022-08-22T19:06:21.309Z,12.50
2022-08-22T19:09:37.062Z,9.82
2022-08-22T19:12:40.871Z,8.93
2022-08-22T19:15:31.479Z,10.40
2022-08-22T19:17:59.186Z,10.73
2022-08-22T19:20:36.603Z,7.25
2022-08-22T19:23:34.597Z,10.60
2022-08-22T19:26:32.016Z,10.43
2022-08-22T19:29:19.046Z,9.60
2022-08-22T19:32:12.983Z,11.37
2022-08-22T19:34:47.073Z,11.95
2022-08-22T19:37:33.224Z,11.10
2022-08-22T19:40:11.819Z,11.10
2022-08-22T19:42:41.299Z,11.95
2022-08-22T19:45:20.396Z,10.73
2022-08-22T19:48:13.213Z,9.57
2022-08-22T19:50:41.247Z,9.20
2022-08-22T19:53:23.313Z,9.90
2022-08-22T19:56:20.364Z,9.52
2022-08-22T19:59:08.557Z,9.53
2022-08-22T20:01:51.336Z,10.65
2022-08-22T20:04:49.637Z,9.68
2022-08-22T20:07:43.375Z,7.85
2022-08-22T20:10:19.439Z,8.70
2022-08-22T20:13:07.910Z,12.93
2022-08-22T20:16:03.835Z,9.43
2022-08-22T20:19:07.244Z,8.88
2022-08-22T20:21:50.490Z,9.60
2022-08-22T20:24:39.998Z,12.18
2022-08-22T20:27:17.537Z,11.87
2022-08-22T20:29:50.186Z,11.30
2022-08-22T20:32:19.708Z,8.98
2022-08-22T20:34:50.476Z,9.40
2022-08-22T20:37:40.176Z,10.27
2022-08-22T20:40:56.774Z,8.40
2022-08-22T20:43:35.685Z,9.13
2022-08-22T20:46:22.694Z,8.95
2022-08-22T20:48:54.418Z,10.07
2022-08-22T20:51:24.416Z,8.85
2022-08-22T20:53:58.378Z,9.10
2022-08-22T20:56:37.411Z,7.95
2022-08-22T20:59:27.266Z,11.45
2022-08-22T21:02:12.469Z,9.77
2022-08-22T21:05:03.975Z,8.85
2022-08-22T21:07:32.469Z,10.90
2022-08-22T21:10:06.389Z,8.88
2022-08-22T21:12:33.210Z,9.63
2022-08-22T21:15:00.023Z,8.10
2022-08-22T21:17:34.423Z,9.10
2022-08-22T21:20:39.213Z,8.80
2022-08-22T21:23:13.069Z,8.10
2022-08-22T21:25:51.805Z,13.75
2022-08-22T21:28:33.008Z,6.72
2022-08-22T21:31:07.514Z,7.85
2022-08-22T21:33:34.680Z,7.50
2022-08-22T21:36:01.633Z,7.30
2022-08-22T21:38:28.596Z,7.15
2022-08-22T21:41:02.247Z,8.90
2022-08-22T21:43:37.959Z,7.10
2022-08-22T21:46:06.378Z,7.13
2022-08-22T21:48:36.132Z,6.47
2022-08-22T21:51:23.579Z,7.70
2022-08-22T21:53:53.359Z,7.28
2022-08-22T21:56:37.611Z,7.85
2022-08-22T21:59:51.773Z,7.10
2022-08-22T22:02:39.702Z,8.40
2022-08-22T22:05:12.773Z,7.78
2022-08-22T22:07:41.876Z,7.30
2022-08-22T22:10:12.019Z,7.25
2022-08-22T22:12:41.910Z,9.03
2022-08-22T22:15:12.738Z,6.75
2022-08-22T22:17:39.685Z,6.93
2022-08-22T22:20:07.077Z,8.57
2022-08-22T22:22:33.997Z,6.95
2022-08-22T22:25:05.159Z,5.63
2022-08-22T22:27:52.258Z,6.53
2022-08-22T22:30:20.821Z,7.82
2022-08-22T22:32:49.352Z,7.97
2022-08-22T22:35:19.615Z,8.30
2022-08-22T22:37:47.066Z,7.47
2022-08-22T22:40:14.388Z,8.95
2022-08-22T22:42:41.767Z,8.45
2022-08-22T22:45:09.595Z,6.82
2022-08-22T22:47:36.932Z,7.93
2022-08-22T22:50:05.009Z,9.57
2022-08-22T22:52:31.859Z,6.28
2022-08-22T22:54:58.693Z,7.88
2022-08-22T22:57:25.839Z,5.97
2022-08-22T22:59:54.198Z,7.38
2022-08-22T23:02:22.747Z,8.07
2022-08-22T23:04:55.314Z,8.50
2022-08-22T23:07:24.480Z,7.20
2022-08-22T23:09:55.712Z,6.60
2022-08-22T23:12:26.913Z,5.78
2022-08-22T23:14:54.102Z,6.20
2022-08-22T23:17:21.195Z,6.68
2022-08-22T23:19:48.264Z,8.13
2022-08-22T23:22:15.180Z,6.25
2022-08-22T23:24:42.347Z,6.25
2022-08-22T23:27:11.139Z,5.17
2022-08-22T23:29:41.918Z,7.82
2022-08-22T23:32:13.924Z,6.47
2022-08-22T23:34:44.636Z,6.60
2022-08-22T23:37:13.596Z,7.05
2022-08-22T23:39:41.123Z,9.30
2022-08-22T23:42:09.521Z,8.35
2022-08-22T23:44:38.807Z,7.38
2022-08-22T23:47:07.767Z,7.68
2022-08-22T23:49:35.673Z,8.38
2022-08-22T23:52:03.288Z,6.63
2022-08-22T23:54:30.227Z,7.22
2022-08-22T23:57:00.680Z,6.45
2022-08-22T23:59:33.954Z,6.35
